Time;durP1;ratioP1;P1;durP2;ratioP2;P2;SDS_P1;SDS_P2;PMS_P1;PMS_P2;Temp;Humidity;BMP_temperature;BMP_pressure;BME280_temperature;BME280_humidity;BME280_pressure;Samples;Min_cycle;Max_cycle;Signal;HPM_P1;HPM_P2
2021/10/28 00:14:04;;;;;;;152.60;69.55;;;;;;;1.54;75.47;95596.19;1680371;83;21018;-57
2021/10/28 00:16:37;;;;;;;168.40;75.55;;;;;;;1.45;75.68;95591.63;1670298;83;21132;-59
2021/10/28 00:19:03;;;;;;;157.62;74.72;;;;;;;1.41;76.03;95586.75;1689162;83;21040;-58
2021/10/28 00:21:34;;;;;;;153.72;74.42;;;;;;;1.44;76.26;95590.07;1687267;83;21150;-59
2021/10/28 00:24:09;;;;;;;156.02;71.57;;;;;;;1.52;76.23;95591.70;1678567;83;21073;-59
2021/10/28 00:26:33;;;;;;;157.20;73.20;;;;;;;1.56;76.23;95588.49;1692081;83;21573;-61
2021/10/28 00:29:04;;;;;;;139.97;67.37;;;;;;;1.60;76.20;95589.30;1690689;83;21069;-60
2021/10/28 00:31:33;;;;;;;131.82;63.25;;;;;;;1.63;76.12;95585.85;1670174;84;21023;-58
2021/10/28 00:34:00;;;;;;;131.20;62.85;;;;;;;1.60;76.00;95575.75;1672141;84;21177;-58
2021/10/28 00:36:27;;;;;;;142.00;65.25;;;;;;;1.57;76.14;95574.34;1672329;83;21073;-59
2021/10/28 00:38:54;;;;;;;129.87;62.53;;;;;;;1.55;76.37;95569.87;1689442;83;21073;-59
2021/10/28 00:41:22;;;;;;;124.50;63.65;;;;;;;1.52;76.25;95565.95;1687625;83;21442;-58
2021/10/28 00:43:55;;;;;;;157.05;68.02;;;;;;;1.47;76.25;95574.42;1666303;83;21022;-57
2021/10/28 00:46:25;;;;;;;134.93;65.47;;;;;;;1.42;76.21;95571.25;1686809;83;21750;-58
2021/10/28 00:48:51;;;;;;;114.25;58.60;;;;;;;1.40;76.35;95563.50;1695368;83;21216;-60
2021/10/28 00:51:20;;;;;;;130.97;61.85;;;;;;;1.43;76.31;95572.81;1691244;83;21058;-59
2021/10/28 00:53:48;;;;;;;124.18;61.98;;;;;;;1.34;76.25;95573.09;1691010;83;21050;-59
2021/10/28 00:56:18;;;;;;;108.83;53.85;;;;;;;1.36;76.45;95570.78;1679378;83;20974;-59
2021/10/28 00:58:44;;;;;;;119.67;56.33;;;;;;;1.39;76.26;95578.77;1688116;84;21323;-58
2021/10/28 01:01:11;;;;;;;119.93;58.35;;;;;;;1.38;76.02;95576.64;1663091;84;21094;-57
2021/10/28 01:03:39;;;;;;;124.70;58.52;;;;;;;1.40;76.03;95574.91;1690718;84;21048;-59
2021/10/28 01:06:07;;;;;;;121.33;58.45;;;;;;;1.37;76.11;95575.09;1689522;84;21541;-58
2021/10/28 01:08:39;;;;;;;114.70;52.62;;;;;;;1.38;76.25;95580.71;1689976;83;21554;-58
2021/10/28 01:11:09;;;;;;;121.37;62.35;;;;;;;1.38;76.05;95573.94;1677416;83;20970;-58
2021/10/28 01:13:37;;;;;;;112.75;55.58;;;;;;;1.33;76.18;95578.30;1694111;83;21042;-59
2021/10/28 01:16:05;;;;;;;116.37;56.37;;;;;;;1.35;75.91;95569.81;1688699;83;21097;-59
2021/10/28 01:18:34;;;;;;;108.78;55.75;;;;;;;1.35;76.07;95565.16;1687298;83;21155;-59
2021/10/28 01:21:00;;;;;;;112.22;52.55;;;;;;;1.43;76.07;95562.77;1691495;83;21564;-57
2021/10/28 01:23:27;;;;;;;105.80;51.95;;;;;;;1.46;75.54;95559.30;1686470;83;21144;-59
2021/10/28 01:26:00;;;;;;;114.82;57.00;;;;;;;1.45;75.36;95558.30;1689237;83;21074;-59
2021/10/28 01:28:29;;;;;;;130.50;64.60;;;;;;;1.46;75.19;95560.66;1678079;84;21027;-58
2021/10/28 01:31:00;;;;;;;129.12;62.80;;;;;;;1.39;75.16;95555.73;1675278;83;21073;-59
2021/10/28 01:33:27;;;;;;;136.62;65.85;;;;;;;1.29;75.15;95564.52;1692572;83;21088;-57
2021/10/28 01:35:55;;;;;;;136.68;62.80;;;;;;;1.17;75.21;95564.74;1695255;83;21085;-58
2021/10/28 01:38:22;;;;;;;110.72;51.15;;;;;;;1.08;75.26;95566.92;1689359;83;21113;-60
2021/10/28 01:40:58;;;;;;;120.95;56.80;;;;;;;0.97;75.46;95570.84;1696470;83;21085;-59
2021/10/28 01:43:26;;;;;;;123.20;56.60;;;;;;;0.91;75.69;95562.84;1690927;83;20979;-58
2021/10/28 01:45:53;;;;;;;121.62;55.52;;;;;;;0.90;75.95;95561.28;1690981;83;21009;-58
2021/10/28 01:48:21;;;;;;;117.57;56.05;;;;;;;0.92;75.94;95552.80;1666949;83;21324;-58
2021/10/28 01:50:48;;;;;;;109.15;56.77;;;;;;;0.96;76.21;95554.39;1694330;83;21027;-58
2021/10/28 01:53:15;;;;;;;99.77;50.03;;;;;;;1.00;76.18;95551.14;1671684;83;21029;-57
2021/10/28 01:55:43;;;;;;;110.63;52.48;;;;;;;1.08;76.39;95556.89;1687349;83;20966;-58
2021/10/28 01:58:16;;;;;;;108.52;52.75;;;;;;;1.12;75.91;95559.66;1690137;83;20998;-59
2021/10/28 02:00:41;;;;;;;107.43;53.40;;;;;;;1.10;75.86;95554.59;1698760;83;21218;-58
2021/10/28 02:03:08;;;;;;;103.00;52.00;;;;;;;1.13;75.95;95553.84;1688238;83;21065;-58
2021/10/28 02:05:36;;;;;;;100.27;48.65;;;;;;;1.22;76.28;95548.95;1688588;84;21534;-59
2021/10/28 02:08:04;;;;;;;100.72;46.28;;;;;;;1.31;75.84;95553.50;1666395;84;21062;-58
2021/10/28 02:10:32;;;;;;;83.42;42.33;;;;;;;1.35;75.61;95552.97;1689061;84;21018;-58
2021/10/28 02:13:00;;;;;;;79.20;43.87;;;;;;;1.32;75.53;95550.99;1666219;83;21584;-58
2021/10/28 02:15:27;;;;;;;86.02;43.52;;;;;;;1.29;75.33;95545.55;1666113;83;20955;-59
2021/10/28 02:17:54;;;;;;;105.30;50.17;;;;;;;1.14;75.09;95549.22;1670595;84;21576;-58
2021/10/28 02:20:21;;;;;;;92.88;48.23;;;;;;;1.00;75.20;95547.67;1671063;84;21058;-60
2021/10/28 02:22:49;;;;;;;91.63;47.38;;;;;;;0.90;75.33;95553.72;1677716;84;21530;-57
2021/10/28 02:25:16;;;;;;;87.37;47.78;;;;;;;0.81;75.52;95552.63;1698289;83;22244;-59
2021/10/28 02:27:46;;;;;;;96.57;48.02;;;;;;;0.82;75.64;95559.63;1689393;83;21568;-58
2021/10/28 02:30:14;;;;;;;98.42;49.48;;;;;;;0.84;75.69;95561.39;1678095;83;21038;-57
2021/10/28 02:32:42;;;;;;;113.12;59.15;;;;;;;0.90;75.68;95561.28;1662494;84;21088;-58
2021/10/28 02:35:09;;;;;;;114.80;59.33;;;;;;;1.02;75.70;95564.34;1687158;83;21077;-58
2021/10/28 02:37:36;;;;;;;108.90;58.65;;;;;;;1.16;75.84;95557.17;1680199;83;21188;-57
2021/10/28 02:40:05;;;;;;;127.38;58.87;;;;;;;1.36;75.50;95562.66;1666551;83;21017;-59
2021/10/28 02:42:32;;;;;;;115.57;60.63;;;;;;;1.46;74.68;95567.44;1665174;84;20995;-56
2021/10/28 02:45:01;;;;;;;104.32;55.15;;;;;;;1.49;74.73;95561.27;1674847;83;21037;-57
2021/10/28 02:47:28;;;;;;;91.47;50.40;;;;;;;1.64;74.40;95563.56;1699823;83;21085;-59
2021/10/28 02:49:56;;;;;;;84.90;49.58;;;;;;;1.71;73.62;95576.63;1701696;83;21864;-57
2021/10/28 02:52:24;;;;;;;92.95;51.58;;;;;;;1.69;73.71;95577.58;1694397;83;21641;-57
2021/10/28 02:54:54;;;;;;;93.22;50.98;;;;;;;1.81;73.69;95579.46;1683565;83;21021;-56
2021/10/28 02:57:21;;;;;;;100.07;50.05;;;;;;;1.89;73.07;95573.55;1662177;84;20999;-57
2021/10/28 02:59:48;;;;;;;90.50;46.80;;;;;;;1.88;73.05;95581.48;1667234;82;21022;-58
2021/10/28 03:02:14;;;;;;;100.95;47.30;;;;;;;1.85;72.85;95572.73;1656517;82;21794;-55
2021/10/28 03:04:42;;;;;;;99.45;46.77;;;;;;;1.90;72.54;95575.09;1689282;84;21144;-57
2021/10/28 03:07:08;;;;;;;102.12;46.85;;;;;;;1.86;72.21;95578.36;1671665;84;21495;-57
2021/10/28 03:09:35;;;;;;;100.58;48.00;;;;;;;1.82;72.30;95581.05;1687374;83;21402;-58
2021/10/28 03:12:05;;;;;;;84.30;43.68;;;;;;;1.82;72.22;95581.61;1687756;83;21561;-60
2021/10/28 03:27:38;;;;;;;114.82;60.28;;;;;;;1.51;72.18;95596.92;1691688;83;21185;-58
2021/10/28 03:30:06;;;;;;;134.22;66.20;;;;;;;1.55;72.19;95605.91;1687593;83;21066;-58
2021/10/28 03:32:33;;;;;;;161.70;81.20;;;;;;;1.62;72.20;95604.63;1685299;83;21029;-61
2021/10/28 03:35:00;;;;;;;140.90;72.25;;;;;;;1.63;72.01;95600.77;1688785;83;21669;-60
2021/10/28 03:37:29;;;;;;;150.07;67.75;;;;;;;1.64;72.35;95610.46;1690507;83;21089;-66
2021/10/28 03:45:32;;;;;;;121.07;60.60;;;;;;;1.47;71.58;95619.16;1699121;83;21073;-60
2021/10/28 03:58:45;;;;;;;131.50;61.50;;;;;;;1.47;71.76;95631.35;1687228;83;21049;-59
2021/10/28 04:30:12;;;;;;;143.50;65.08;;;;;;;1.42;71.86;95645.80;1690851;83;21041;-60
2021/10/28 04:32:40;;;;;;;123.75;55.85;;;;;;;1.28;71.33;95642.32;1691320;83;21169;-59
2021/10/28 04:35:09;;;;;;;115.42;62.45;;;;;;;1.05;71.30;95639.45;1687614;83;20946;-60
2021/10/28 04:37:39;;;;;;;118.02;61.02;;;;;;;0.92;71.42;95642.95;1684494;83;21104;-60
2021/10/28 04:40:07;;;;;;;121.28;66.90;;;;;;;0.88;71.59;95644.83;1690989;83;21117;-60
2021/10/28 04:42:35;;;;;;;114.47;63.90;;;;;;;0.84;71.58;95643.99;1679125;84;21604;-59
2021/10/28 04:45:04;;;;;;;115.30;57.93;;;;;;;0.80;71.76;95651.26;1658236;85;22519;-61
2021/10/28 04:47:32;;;;;;;149.45;74.40;;;;;;;0.84;72.15;95643.99;1698568;83;21045;-60
2021/10/28 04:49:59;;;;;;;118.62;60.70;;;;;;;0.90;72.37;95633.05;1688810;83;20966;-58
2021/10/28 04:52:26;;;;;;;104.20;54.30;;;;;;;0.99;72.66;95640.92;1676203;83;21029;-60
2021/10/28 04:54:53;;;;;;;126.95;59.55;;;;;;;1.08;72.23;95643.58;1662189;84;21506;-60
2021/10/28 04:57:19;;;;;;;145.82;67.87;;;;;;;1.13;71.85;95645.97;1671899;83;21490;-59
2021/10/28 04:59:47;;;;;;;132.22;69.10;;;;;;;1.20;71.84;95650.72;1671415;83;21025;-59
2021/10/28 05:02:14;;;;;;;135.72;68.22;;;;;;;1.28;71.77;95646.98;1673414;83;21079;-60
2021/10/28 05:04:41;;;;;;;117.55;63.05;;;;;;;1.39;71.36;95645.17;1692620;83;21568;-60
2021/10/28 05:07:08;;;;;;;143.72;74.58;;;;;;;1.48;70.95;95643.76;1689565;83;21093;-60
2021/10/28 05:09:39;;;;;;;144.00;72.75;;;;;;;1.46;70.74;95641.99;1696375;83;21122;-63
2021/10/28 05:12:05;;;;;;;135.18;64.92;;;;;;;1.42;70.80;95652.01;1675285;83;21439;-60
2021/10/28 05:14:32;;;;;;;136.30;66.67;;;;;;;1.37;70.70;95640.14;1693485;84;21053;-60
2021/10/28 05:16:59;;;;;;;115.67;58.55;;;;;;;1.27;71.22;95642.67;1676881;84;21101;-61
2021/10/28 05:19:29;;;;;;;139.77;70.28;;;;;;;1.21;71.09;95641.44;1673244;83;21007;-61
2021/10/28 05:21:54;;;;;;;126.85;64.87;;;;;;;1.18;71.53;95639.46;1671315;84;21165;-60
2021/10/28 05:24:21;;;;;;;129.03;66.35;;;;;;;1.24;71.66;95650.98;1699991;83;21082;-60
2021/10/28 05:26:48;;;;;;;149.10;66.10;;;;;;;1.35;71.39;95645.12;1695260;83;21578;-58
2021/10/28 05:29:15;;;;;;;242.35;102.25;;;;;;;1.42;71.64;95656.08;1669053;83;21179;-60
2021/10/28 05:31:42;;;;;;;286.95;117.00;;;;;;;1.51;71.09;95657.16;1690093;83;20966;-61
2021/10/28 05:34:09;;;;;;;218.65;92.95;;;;;;;1.43;70.64;95654.93;1657758;83;21535;-60
2021/10/28 05:36:35;;;;;;;211.90;100.72;;;;;;;1.36;70.64;95654.81;1694244;83;21640;-61
2021/10/28 05:39:02;;;;;;;161.80;79.03;;;;;;;1.36;70.89;95656.16;1685468;83;21125;-59
2021/10/28 05:41:34;;;;;;;193.37;90.20;;;;;;;1.37;70.74;95656.41;1706651;81;21148;-60
2021/10/28 05:44:06;;;;;;;154.38;76.20;;;;;;;1.39;70.74;95662.23;1720657;82;21005;-63
2021/10/28 05:46:33;;;;;;;160.72;73.00;;;;;;;1.43;70.94;95663.06;1697934;81;21144;-60
2021/10/28 05:49:00;;;;;;;179.93;85.32;;;;;;;1.50;71.10;95675.34;1677895;83;21596;-59
2021/10/28 05:51:27;;;;;;;183.87;88.90;;;;;;;1.45;70.84;95672.16;1703529;82;21006;-60
2021/10/28 05:53:55;;;;;;;253.32;114.35;;;;;;;1.41;71.18;95678.11;1711697;82;21050;-60
2021/10/28 05:56:22;;;;;;;151.32;78.17;;;;;;;1.43;71.17;95675.81;1691673;81;21130;-61
2021/10/28 05:58:48;;;;;;;226.73;109.78;;;;;;;1.41;71.26;95676.20;1700308;81;21812;-60
2021/10/28 06:01:15;;;;;;;195.40;89.80;;;;;;;1.48;71.53;95685.78;1706580;81;21055;-63
2021/10/28 06:03:52;;;;;;;164.32;86.67;;;;;;;1.56;71.76;95688.81;1690164;83;21010;-62
2021/10/28 06:06:20;;;;;;;145.70;73.33;;;;;;;1.69;72.10;95692.84;1713193;81;21025;-63
2021/10/28 06:08:47;;;;;;;136.82;68.28;;;;;;;1.90;72.17;95695.27;1708100;81;21519;-62
2021/10/28 06:11:19;;;;;;;202.23;94.37;;;;;;;2.02;71.94;95693.68;1699913;81;20997;-64
2021/10/28 06:13:48;;;;;;;186.20;92.45;;;;;;;2.04;71.73;95686.51;1710083;81;21147;-63
2021/10/28 06:16:16;;;;;;;226.32;113.83;;;;;;;2.03;71.52;95698.52;1716087;81;20969;-64
2021/10/28 06:18:43;;;;;;;300.87;144.45;;;;;;;1.98;71.46;95705.04;1708835;81;21104;-63
2021/10/28 06:21:11;;;;;;;289.70;135.93;;;;;;;1.94;71.60;95706.17;1685573;81;21062;-62
2021/10/28 06:23:39;;;;;;;240.72;116.93;;;;;;;1.92;71.64;95713.30;1692691;82;21511;-63
2021/10/28 06:26:05;;;;;;;221.28;105.17;;;;;;;1.93;71.84;95712.75;1673774;83;21946;-70
2021/10/28 06:28:33;;;;;;;236.68;111.10;;;;;;;1.98;72.19;95706.39;1669715;83;21170;-62
2021/10/28 06:31:00;;;;;;;265.18;122.42;;;;;;;2.09;72.24;95716.02;1691818;81;21104;-66
2021/10/28 06:33:30;;;;;;;258.05;116.82;;;;;;;2.13;72.39;95710.85;1709279;81;21660;-65
2021/10/28 06:35:57;;;;;;;246.13;122.00;;;;;;;2.25;72.31;95716.61;1710340;81;21859;-62
2021/10/28 06:38:24;;;;;;;198.02;96.20;;;;;;;2.37;72.58;95716.37;1698498;81;21094;-66
2021/10/28 06:40:51;;;;;;;197.15;95.53;;;;;;;2.54;72.24;95714.42;1683043;81;21044;-60
2021/10/28 06:43:17;;;;;;;191.65;97.78;;;;;;;2.62;72.19;95711.41;1663679;81;21052;-61
2021/10/28 06:45:44;;;;;;;154.80;89.47;;;;;;;2.74;72.27;95710.36;1701206;81;21532;-60
2021/10/28 06:48:11;;;;;;;124.30;67.70;;;;;;;2.87;72.26;95713.02;1711573;81;21144;-59
2021/10/28 06:50:42;;;;;;;121.65;66.20;;;;;;;2.93;72.36;95706.07;1691269;82;21120;-64
2021/10/28 06:53:21;;;;;;;89.75;51.45;;;;;;;3.03;72.48;95708.88;1717911;81;21035;-60
2021/10/28 06:55:46;;;;;;;90.43;51.97;;;;;;;3.18;72.35;95706.48;1696785;81;21070;-60
2021/10/28 07:03:23;;;;;;;116.00;63.15;;;;;;;3.70;72.38;95698.69;1709817;82;21163;-58
2021/10/28 07:05:50;;;;;;;88.27;53.48;;;;;;;4.01;72.03;95698.08;1683683;81;21041;-61
2021/10/28 07:08:18;;;;;;;85.40;47.15;;;;;;;4.25;71.26;95694.67;1705362;82;21437;-58
2021/10/28 07:10:46;;;;;;;68.95;42.38;;;;;;;4.35;70.87;95693.95;1706704;81;21092;-63
2021/10/28 07:13:17;;;;;;;75.28;46.63;;;;;;;4.44;70.72;95690.86;1705806;81;21177;-66
2021/10/28 07:15:47;;;;;;;72.32;44.65;;;;;;;4.53;70.68;95697.50;1690443;81;21551;-63
2021/10/28 07:18:23;;;;;;;58.83;37.10;;;;;;;4.58;70.60;95698.48;1697220;82;21133;-67
2021/10/28 07:58:33;;;;;;;56.30;28.77;;;;;;;6.30;67.29;95635.75;1659851;84;21529;-61
2021/10/28 08:13:27;;;;;;;37.48;23.57;;;;;;;6.89;66.22;95622.30;1714606;82;21189;-62
2021/10/28 08:14:28;;;;;;;36.35;22.00;;;;;;;7.39;64.79;95616.61;1700241;82;21085;-62
2021/10/28 08:17:06;;;;;;;37.35;21.97;;;;;;;7.55;64.25;95620.34;1707838;81;21038;-60
2021/10/28 08:19:44;;;;;;;33.50;20.40;;;;;;;7.67;63.83;95614.97;1705008;82;21555;-60
2021/10/28 08:29:55;;;;;;;33.45;19.70;;;;;;;8.25;62.67;95610.00;1683489;82;21033;-63
2021/10/28 08:32:21;;;;;;;35.68;19.25;;;;;;;8.55;62.33;95607.84;1715213;81;22265;-62
2021/10/28 08:34:49;;;;;;;31.23;18.25;;;;;;;8.84;61.55;95606.25;1688679;82;21066;-63
2021/10/28 08:37:18;;;;;;;32.28;17.48;;;;;;;9.03;60.93;95598.13;1712099;81;21105;-61
2021/10/28 08:39:51;;;;;;;27.62;15.45;;;;;;;9.18;60.00;95597.47;1701418;82;21047;-62
2021/10/28 08:42:20;;;;;;;22.82;13.95;;;;;;;9.35;59.15;95601.09;1711475;81;21066;-63
2021/10/28 08:44:51;;;;;;;15.85;10.50;;;;;;;9.52;58.84;95598.06;1725896;81;21110;-64
2021/10/28 08:47:21;;;;;;;15.38;10.43;;;;;;;9.75;58.04;95594.48;1669155;82;21102;-63
2021/10/28 08:50:12;;;;;;;15.43;9.70;;;;;;;10.03;57.35;95588.49;1718520;81;21493;-63
2021/10/28 08:55:19;;;;;;;23.25;13.75;;;;;;;10.67;55.29;95581.81;1713490;81;21473;-63
2021/10/28 09:26:42;;;;;;;20.82;11.53;;;;;;;12.76;49.88;95555.55;1712410;81;22020;-62
2021/10/28 09:29:14;;;;;;;19.37;12.30;;;;;;;13.00;49.36;95543.77;1718326;81;20971;-62
2021/10/28 09:46:44;;;;;;;18.77;8.30;;;;;;;14.42;45.96;95538.43;1712473;81;21647;-61
2021/10/28 09:52:12;;;;;;;15.95;8.85;;;;;;;15.30;43.61;95530.38;1704574;81;21128;-61
2021/10/28 10:00:14;;;;;;;15.45;8.63;;;;;;;16.64;40.94;95518.53;1684644;81;21187;-67
2021/10/28 10:03:08;;;;;;;18.82;9.35;;;;;;;17.10;40.25;95517.11;1709346;81;21575;-64
2021/10/28 10:05:23;;;;;;;12.30;8.57;;;;;;;17.40;40.00;95512.50;1699970;81;21062;-62
2021/10/28 10:07:55;;;;;;;57.58;33.33;;;;;;;17.74;39.25;95502.23;1732253;81;21084;-63
2021/10/28 10:10:24;;;;;;;29.37;14.73;;;;;;;18.22;38.68;95496.10;1710686;80;21681;-63
2021/10/28 10:12:51;;;;;;;15.48;10.70;;;;;;;18.72;37.96;95493.61;1708332;81;20990;-61
2021/10/28 10:15:18;;;;;;;17.70;9.20;;;;;;;19.26;37.26;95497.95;1715983;81;21125;-63
2021/10/28 10:17:54;;;;;;;15.23;8.53;;;;;;;19.92;36.12;95486.26;1692010;82;21045;-63
2021/10/28 10:20:30;;;;;;;15.98;8.85;;;;;;;20.55;34.83;95486.61;1718824;82;21873;-63
2021/10/28 10:23:12;;;;;;;19.00;9.00;;;;;;;21.06;33.42;95485.94;1688728;80;21033;-61
2021/10/28 10:26:01;;;;;;;13.40;8.58;;;;;;;21.37;33.16;95491.52;1705967;82;21296;-62
2021/10/28 12:01:27;;;;;;;13.25;7.15;;;;;;;29.94;20.76;95417.31;1709007;82;21076;-62
2021/10/28 12:50:19;;;;;;;8.83;5.62;;;;;;;31.54;17.09;95352.62;1708056;81;21104;-63
2021/10/28 12:55:48;;;;;;;9.60;5.75;;;;;;;31.20;18.22;95347.34;1672793;83;22261;-62
2021/10/28 13:35:01;;;;;;;14.38;8.88;;;;;;;29.11;20.44;95343.52;1701743;82;21057;-62
2021/10/28 13:52:02;;;;;;;24.70;14.10;;;;;;;27.68;22.58;95342.52;1671894;82;21473;-61
2021/10/28 13:54:39;;;;;;;26.17;14.78;;;;;;;27.55;22.76;95336.86;1680859;82;21218;-60
2021/10/28 13:57:12;;;;;;;31.95;16.75;;;;;;;27.53;22.93;95337.28;1701278;81;21011;-61
2021/10/28 15:29:00;;;;;;;166.90;81.35;;;;;;;12.41;48.72;95377.23;1740502;81;21018;-61
2021/10/28 15:37:10;;;;;;;147.70;77.95;;;;;;;11.70;50.94;95388.14;1719811;82;21094;-61
2021/10/28 15:39:37;;;;;;;158.55;79.65;;;;;;;11.46;51.47;95387.62;1733144;82;21058;-60
2021/10/28 16:23:04;;;;;;;115.72;63.68;;;;;;;8.93;60.19;95433.82;1720801;81;21017;-58
2021/10/28 16:25:31;;;;;;;109.25;59.27;;;;;;;8.84;60.61;95442.39;1702035;82;21109;-59
2021/10/28 16:27:59;;;;;;;107.67;63.85;;;;;;;8.74;60.81;95443.37;1727583;82;21014;-60
2021/10/28 16:30:26;;;;;;;137.68;70.87;;;;;;;8.65;61.18;95440.38;1704526;82;21156;-59
2021/10/28 16:32:53;;;;;;;148.13;72.37;;;;;;;8.56;61.36;95453.86;1739222;81;21053;-60
2021/10/28 16:35:21;;;;;;;158.85;61.95;;;;;;;8.45;61.68;95456.59;1719168;82;21171;-61
2021/10/28 16:37:51;;;;;;;226.77;71.17;;;;;;;8.35;62.02;95457.52;1684524;83;21090;-61
2021/10/28 16:40:19;;;;;;;220.75;71.87;;;;;;;8.21;62.34;95459.89;1722538;82;21011;-60
2021/10/28 16:42:46;;;;;;;295.95;99.47;;;;;;;8.01;62.80;95456.25;1687806;83;21147;-59
2021/10/28 16:45:13;;;;;;;313.35;103.05;;;;;;;7.85;63.20;95458.05;1731920;81;21164;-59
2021/10/28 16:47:42;;;;;;;264.35;92.72;;;;;;;7.72;63.90;95463.28;1732040;82;21534;-61
2021/10/28 16:50:11;;;;;;;299.40;96.15;;;;;;;7.64;64.36;95467.89;1728398;82;21089;-60
2021/10/28 16:52:39;;;;;;;367.73;121.42;;;;;;;7.57;64.63;95468.78;1730480;82;21513;-60
2021/10/28 16:55:07;;;;;;;340.73;126.82;;;;;;;7.52;65.00;95469.83;1720389;82;21131;-58
2021/10/28 16:57:33;;;;;;;372.63;154.82;;;;;;;7.49;65.22;95464.56;1695005;82;21042;-59
2021/10/28 17:00:03;;;;;;;434.57;192.62;;;;;;;7.48;65.21;95473.20;1701459;82;21058;-60
2021/10/28 17:02:30;;;;;;;349.90;143.52;;;;;;;7.44;65.34;95474.61;1726378;82;21088;-60
2021/10/28 17:04:57;;;;;;;260.15;104.97;;;;;;;7.41;65.29;95480.91;1722926;82;21108;-60
2021/10/28 17:07:25;;;;;;;320.57;142.45;;;;;;;7.35;65.12;95479.78;1726228;81;21132;-61
2021/10/28 17:09:52;;;;;;;270.67;115.30;;;;;;;7.29;65.62;95480.05;1719650;82;21015;-63
2021/10/28 17:12:20;;;;;;;299.35;130.12;;;;;;;7.27;65.87;95485.16;1697161;82;21100;-59
2021/10/28 17:14:48;;;;;;;340.43;151.87;;;;;;;7.20;65.80;95483.88;1720999;82;21088;-59
2021/10/28 17:17:18;;;;;;;310.52;130.50;;;;;;;7.10;65.97;95491.59;1708844;82;21455;-59
2021/10/28 17:19:47;;;;;;;292.75;126.22;;;;;;;7.06;66.40;95492.80;1725396;82;21744;-60
2021/10/28 17:22:18;;;;;;;320.77;125.95;;;;;;;7.04;66.69;95491.07;1727194;82;21014;-61
2021/10/28 17:24:50;;;;;;;328.62;135.22;;;;;;;7.02;66.78;95499.48;1714169;82;21573;-60
2021/10/28 17:27:20;;;;;;;317.27;145.95;;;;;;;6.97;66.91;95504.83;1688912;82;21093;-58
2021/10/28 17:29:49;;;;;;;330.15;141.88;;;;;;;6.88;66.82;95494.17;1721992;82;21299;-59
2021/10/28 17:32:18;;;;;;;312.35;137.12;;;;;;;6.78;66.85;95498.56;1722585;82;21153;-61
2021/10/28 17:34:46;;;;;;;343.70;147.45;;;;;;;6.73;67.08;95499.58;1726252;82;21078;-59
2021/10/28 17:37:14;;;;;;;288.87;130.32;;;;;;;6.69;67.42;95505.67;1720593;82;21121;-59
2021/10/28 17:39:42;;;;;;;275.68;121.92;;;;;;;6.67;67.59;95512.90;1726295;82;21066;-59
2021/10/28 17:42:11;;;;;;;224.73;107.17;;;;;;;6.64;67.40;95510.19;1722897;82;21049;-58
2021/10/28 17:44:41;;;;;;;220.48;100.75;;;;;;;6.60;67.87;95506.71;1690329;81;21194;-60
2021/10/28 17:47:08;;;;;;;190.70;96.92;;;;;;;6.59;68.24;95521.56;1710577;82;20982;-60
2021/10/28 17:49:36;;;;;;;248.35;110.90;;;;;;;6.56;68.27;95521.00;1725867;82;21568;-59
2021/10/28 17:52:06;;;;;;;224.65;100.27;;;;;;;6.51;68.19;95516.73;1722935;82;21590;-60
2021/10/28 17:54:33;;;;;;;280.00;113.47;;;;;;;6.45;68.68;95514.25;1733271;81;21045;-59
2021/10/28 17:57:03;;;;;;;252.45;108.50;;;;;;;6.41;68.88;95518.18;1725154;82;21101;-60
2021/10/28 17:59:30;;;;;;;234.67;107.60;;;;;;;6.39;69.11;95515.08;1706513;82;21446;-59
2021/10/28 18:01:57;;;;;;;211.18;100.72;;;;;;;6.36;68.97;95518.02;1693327;82;21731;-59
2021/10/28 18:04:25;;;;;;;221.55;104.45;;;;;;;6.35;69.26;95511.59;1717615;82;21015;-60
2021/10/28 18:06:52;;;;;;;344.37;123.33;;;;;;;6.28;69.49;95516.52;1704758;82;21557;-59
2021/10/28 18:09:23;;;;;;;367.82;133.93;;;;;;;6.22;69.69;95518.70;1717049;82;20951;-60
2021/10/28 18:11:53;;;;;;;323.75;123.22;;;;;;;6.15;69.89;95517.39;1719129;82;20974;-59
2021/10/28 18:14:26;;;;;;;444.97;172.87;;;;;;;6.06;69.80;95526.60;1728191;82;20927;-60
2021/10/28 18:16:55;;;;;;;402.33;145.27;;;;;;;5.93;69.79;95526.89;1703870;82;21160;-61
2021/10/28 18:19:24;;;;;;;403.52;163.82;;;;;;;5.76;69.94;95526.36;1698622;82;21663;-59
2021/10/28 18:21:55;;;;;;;459.00;180.72;;;;;;;5.58;70.22;95534.61;1733915;82;22839;-59
2021/10/28 18:24:25;;;;;;;458.50;181.80;;;;;;;5.46;70.54;95531.53;1700200;81;21033;-60
2021/10/28 18:26:54;;;;;;;460.52;187.53;;;;;;;5.40;70.75;95530.39;1728153;81;21601;-60
2021/10/28 18:29:22;;;;;;;434.65;174.27;;;;;;;5.36;70.95;95529.61;1707969;82;21508;-57
2021/10/28 18:31:54;;;;;;;413.93;167.47;;;;;;;5.32;71.19;95532.94;1717103;82;21114;-59
2021/10/28 18:34:21;;;;;;;397.45;156.28;;;;;;;5.30;71.28;95528.47;1725636;82;21145;-59
2021/10/28 18:36:50;;;;;;;455.20;187.95;;;;;;;5.25;71.38;95531.61;1695581;82;21110;-60
2021/10/28 18:39:17;;;;;;;454.90;183.72;;;;;;;5.22;71.46;95529.67;1720796;82;21147;-60
2021/10/28 18:41:47;;;;;;;398.32;170.92;;;;;;;5.15;71.53;95539.21;1719908;82;21150;-62
2021/10/28 18:44:16;;;;;;;374.05;155.07;;;;;;;5.14;71.71;95534.93;1715697;82;20990;-60
2021/10/28 18:46:45;;;;;;;337.10;135.37;;;;;;;5.14;72.01;95531.44;1716322;82;21208;-60
2021/10/28 18:49:12;;;;;;;438.25;176.47;;;;;;;5.15;72.06;95539.81;1726010;82;21522;-61
2021/10/28 18:51:41;;;;;;;427.90;174.68;;;;;;;5.10;72.18;95540.19;1716113;82;21014;-59
2021/10/28 18:54:09;;;;;;;415.68;179.45;;;;;;;5.03;72.39;95536.13;1735507;81;21026;-58
2021/10/28 18:56:36;;;;;;;414.45;162.97;;;;;;;4.94;72.50;95543.34;1728059;82;21443;-60
2021/10/28 18:59:04;;;;;;;411.68;169.00;;;;;;;4.83;72.66;95539.08;1716796;82;21156;-60
2021/10/28 19:01:32;;;;;;;333.65;144.93;;;;;;;4.73;72.76;95541.20;1698457;81;21026;-60
2021/10/28 19:04:01;;;;;;;362.40;151.45;;;;;;;4.61;72.94;95538.30;1730995;82;20978;-60
2021/10/28 19:06:31;;;;;;;376.40;161.20;;;;;;;4.52;73.23;95542.02;1725548;82;21470;-59
2021/10/28 19:09:02;;;;;;;384.05;157.57;;;;;;;4.45;73.38;95540.63;1726613;82;21067;-58
2021/10/28 19:11:29;;;;;;;393.12;167.53;;;;;;;4.45;73.58;95537.91;1735592;82;21142;-59
2021/10/28 19:13:59;;;;;;;397.90;175.80;;;;;;;4.46;73.80;95543.55;1721259;82;21128;-59
2021/10/28 19:16:27;;;;;;;321.65;139.57;;;;;;;4.46;73.95;95549.59;1723328;82;21053;-59
2021/10/28 19:18:57;;;;;;;303.02;126.12;;;;;;;4.44;74.16;95551.33;1714300;82;21060;-59
2021/10/28 19:21:29;;;;;;;;;;;;;;;4.45;74.55;95541.98;1729595;81;21065;-59
2021/10/28 19:23:58;;;;;;;331.95;142.50;;;;;;;4.45;74.28;95551.52;1710045;82;20692;-58
2021/10/28 19:26:25;;;;;;;366.98;163.03;;;;;;;4.35;74.04;95548.22;1719769;82;21046;-59
2021/10/28 19:28:52;;;;;;;344.50;155.18;;;;;;;4.25;73.98;95553.06;1731637;82;20981;-58
2021/10/28 19:31:31;;;;;;;347.12;154.07;;;;;;;4.18;74.22;95546.25;1712793;82;21092;-58
2021/10/28 19:34:00;;;;;;;378.58;156.82;;;;;;;4.20;74.68;95550.72;1711191;82;21044;-57
2021/10/28 19:36:34;;;;;;;399.58;183.90;;;;;;;4.26;74.73;95551.89;1734392;82;21169;-59
2021/10/28 19:39:22;;;;;;;449.32;205.55;;;;;;;4.26;74.64;95551.89;1720704;82;21056;-58
2021/10/28 19:47:06;;;;;;;402.20;179.38;;;;;;;4.27;74.47;95556.17;1737373;82;20980;-58
2021/10/28 19:49:34;;;;;;;436.05;178.85;;;;;;;4.25;74.19;95553.66;1725035;82;21889;-60
2021/10/28 19:52:02;;;;;;;423.20;178.23;;;;;;;4.21;74.15;95555.60;1723764;82;21520;-59
2021/10/28 19:54:31;;;;;;;469.95;202.82;;;;;;;4.17;74.22;95559.67;1695123;82;20967;-60
2021/10/28 19:56:58;;;;;;;435.07;186.60;;;;;;;4.12;74.49;95564.71;1700946;81;21021;-58
2021/10/28 19:59:28;;;;;;;468.80;203.25;;;;;;;4.08;74.60;95568.78;1696548;82;21018;-58
2021/10/28 20:02:04;;;;;;;479.60;209.77;;;;;;;4.04;74.85;95558.47;1722214;82;21188;-59
2021/10/28 20:07:17;;;;;;;420.88;185.18;;;;;;;4.10;74.95;95562.95;1729750;82;21089;-59
2021/10/28 20:20:40;;;;;;;393.05;167.47;;;;;;;3.94;74.45;95568.77;1729300;81;20991;-59